sensor_id;sensor_type;location;lat;lon;timestamp;P1;durP1;ratioP1;P2;durP2;ratioP2
25549;SDS011;13444;50.562;7.262;2023-04-09T00:02:21;19.80;;;14.02;;
25549;SDS011;13444;50.562;7.262;2023-04-09T00:04:47;18.73;;;13.55;;
25549;SDS011;13444;50.562;7.262;2023-04-09T00:07:12;17.38;;;12.98;;
25549;SDS011;13444;50.562;7.262;2023-04-09T00:09:38;20.65;;;13.32;;
25549;SDS011;13444;50.562;7.262;2023-04-09T00:12:03;20.60;;;14.07;;
25549;SDS011;13444;50.562;7.262;2023-04-09T00:14:29;18.75;;;13.43;;
25549;SDS011;13444;50.562;7.262;2023-04-09T00:16:55;23.13;;;15.25;;
25549;SDS011;13444;50.562;7.262;2023-04-09T00:19:20;22.98;;;15.23;;
25549;SDS011;13444;50.562;7.262;2023-04-09T00:21:46;20.38;;;14.25;;
25549;SDS011;13444;50.562;7.262;2023-04-09T00:24:12;23.25;;;14.60;;
25549;SDS011;13444;50.562;7.262;2023-04-09T00:26:38;20.73;;;14.70;;
25549;SDS011;13444;50.562;7.262;2023-04-09T00:29:03;21.63;;;14.70;;
25549;SDS011;13444;50.562;7.262;2023-04-09T00:31:29;18.17;;;14.18;;
25549;SDS011;13444;50.562;7.262;2023-04-09T00:33:54;20.70;;;15.55;;
25549;SDS011;13444;50.562;7.262;2023-04-09T00:36:20;21.92;;;15.60;;
25549;SDS011;13444;50.562;7.262;2023-04-09T00:38:46;22.92;;;15.43;;
25549;SDS011;13444;50.562;7.262;2023-04-09T00:41:13;21.75;;;15.25;;
25549;SDS011;13444;50.562;7.262;2023-04-09T00:43:39;23.58;;;16.10;;
25549;SDS011;13444;50.562;7.262;2023-04-09T00:46:05;20.58;;;15.02;;
25549;SDS011;13444;50.562;7.262;2023-04-09T00:48:30;23.45;;;14.52;;
25549;SDS011;13444;50.562;7.262;2023-04-09T00:50:56;21.98;;;15.15;;
25549;SDS011;13444;50.562;7.262;2023-04-09T00:53:22;20.27;;;14.52;;
25549;SDS011;13444;50.562;7.262;2023-04-09T00:55:47;23.27;;;16.05;;
25549;SDS011;13444;50.562;7.262;2023-04-09T00:58:13;21.02;;;15.98;;
25549;SDS011;13444;50.562;7.262;2023-04-09T01:00:39;20.50;;;14.38;;
25549;SDS011;13444;50.562;7.262;2023-04-09T01:03:05;20.05;;;15.43;;
25549;SDS011;13444;50.562;7.262;2023-04-09T01:05:40;20.50;;;15.00;;
25549;SDS011;13444;50.562;7.262;2023-04-09T01:08:17;18.52;;;14.00;;
25549;SDS011;13444;50.562;7.262;2023-04-09T01:11:01;25.52;;;15.75;;
25549;SDS011;13444;50.562;7.262;2023-04-09T01:13:46;20.70;;;15.82;;
25549;SDS011;13444;50.562;7.262;2023-04-09T01:16:18;22.33;;;15.43;;
25549;SDS011;13444;50.562;7.262;2023-04-09T01:18:49;20.95;;;15.00;;
25549;SDS011;13444;50.562;7.262;2023-04-09T01:21:22;22.60;;;16.13;;
25549;SDS011;13444;50.562;7.262;2023-04-09T01:23:57;23.30;;;15.93;;
25549;SDS011;13444;50.562;7.262;2023-04-09T01:29:29;23.50;;;15.93;;
25549;SDS011;13444;50.562;7.262;2023-04-09T01:31:57;22.55;;;15.73;;
25549;SDS011;13444;50.562;7.262;2023-04-09T01:34:24;24.45;;;15.35;;
25549;SDS011;13444;50.562;7.262;2023-04-09T01:36:53;22.45;;;15.38;;
25549;SDS011;13444;50.562;7.262;2023-04-09T01:39:21;23.02;;;15.18;;
25549;SDS011;13444;50.562;7.262;2023-04-09T01:41:47;25.88;;;16.30;;
25549;SDS011;13444;50.562;7.262;2023-04-09T01:44:14;24.63;;;16.63;;
25549;SDS011;13444;50.562;7.262;2023-04-09T01:46:41;25.05;;;16.50;;
25549;SDS011;13444;50.562;7.262;2023-04-09T01:49:08;23.38;;;16.40;;
25549;SDS011;13444;50.562;7.262;2023-04-09T01:51:34;25.50;;;16.88;;
25549;SDS011;13444;50.562;7.262;2023-04-09T01:54:00;25.08;;;17.10;;
25549;SDS011;13444;50.562;7.262;2023-04-09T01:56:26;24.50;;;17.38;;
25549;SDS011;13444;50.562;7.262;2023-04-09T01:58:52;24.70;;;17.13;;
25549;SDS011;13444;50.562;7.262;2023-04-09T02:02:19;22.05;;;16.50;;
25549;SDS011;13444;50.562;7.262;2023-04-09T02:04:29;19.50;;;15.15;;
25549;SDS011;13444;50.562;7.262;2023-04-09T02:07:01;22.60;;;15.60;;
25549;SDS011;13444;50.562;7.262;2023-04-09T02:09:32;21.27;;;15.00;;
25549;SDS011;13444;50.562;7.262;2023-04-09T02:12:02;20.70;;;15.00;;
25549;SDS011;13444;50.562;7.262;2023-04-09T02:14:30;19.52;;;14.80;;
25549;SDS011;13444;50.562;7.262;2023-04-09T02:16:57;20.33;;;13.50;;
25549;SDS011;13444;50.562;7.262;2023-04-09T02:19:23;17.63;;;13.43;;
25549;SDS011;13444;50.562;7.262;2023-04-09T02:21:49;19.77;;;13.43;;
25549;SDS011;13444;50.562;7.262;2023-04-09T02:24:14;18.42;;;13.35;;
25549;SDS011;13444;50.562;7.262;2023-04-09T02:26:40;17.02;;;13.85;;
25549;SDS011;13444;50.562;7.262;2023-04-09T02:29:05;19.52;;;13.75;;
25549;SDS011;13444;50.562;7.262;2023-04-09T02:31:31;22.55;;;14.70;;
25549;SDS011;13444;50.562;7.262;2023-04-09T02:33:56;19.27;;;12.85;;
25549;SDS011;13444;50.562;7.262;2023-04-09T02:36:22;18.83;;;13.32;;
25549;SDS011;13444;50.562;7.262;2023-04-09T02:38:47;19.13;;;13.20;;
25549;SDS011;13444;50.562;7.262;2023-04-09T02:41:13;17.30;;;12.65;;
25549;SDS011;13444;50.562;7.262;2023-04-09T02:43:38;16.75;;;13.35;;
25549;SDS011;13444;50.562;7.262;2023-04-09T02:46:04;18.98;;;13.43;;
25549;SDS011;13444;50.562;7.262;2023-04-09T02:48:31;20.55;;;14.75;;
25549;SDS011;13444;50.562;7.262;2023-04-09T02:50:57;19.55;;;13.98;;
25549;SDS011;13444;50.562;7.262;2023-04-09T02:53:22;18.75;;;13.95;;
25549;SDS011;13444;50.562;7.262;2023-04-09T02:55:48;19.63;;;13.90;;
25549;SDS011;13444;50.562;7.262;2023-04-09T02:58:13;23.25;;;14.85;;
25549;SDS011;13444;50.562;7.262;2023-04-09T03:00:39;18.90;;;13.43;;
25549;SDS011;13444;50.562;7.262;2023-04-09T03:03:05;21.75;;;14.90;;
25549;SDS011;13444;50.562;7.262;2023-04-09T03:05:30;18.83;;;13.80;;
25549;SDS011;13444;50.562;7.262;2023-04-09T03:07:56;22.52;;;14.98;;
25549;SDS011;13444;50.562;7.262;2023-04-09T03:10:21;18.05;;;13.73;;
25549;SDS011;13444;50.562;7.262;2023-04-09T03:12:47;24.00;;;14.98;;
25549;SDS011;13444;50.562;7.262;2023-04-09T03:15:12;19.27;;;14.30;;
25549;SDS011;13444;50.562;7.262;2023-04-09T03:17:38;20.10;;;14.93;;
25549;SDS011;13444;50.562;7.262;2023-04-09T03:20:05;17.65;;;13.20;;
25549;SDS011;13444;50.562;7.262;2023-04-09T03:22:34;23.33;;;13.93;;
25549;SDS011;13444;50.562;7.262;2023-04-09T03:25:03;19.35;;;12.65;;
25549;SDS011;13444;50.562;7.262;2023-04-09T03:27:30;15.73;;;12.68;;
25549;SDS011;13444;50.562;7.262;2023-04-09T03:29:56;15.43;;;12.50;;
25549;SDS011;13444;50.562;7.262;2023-04-09T03:32:22;18.05;;;12.32;;
25549;SDS011;13444;50.562;7.262;2023-04-09T03:34:47;15.57;;;12.05;;
25549;SDS011;13444;50.562;7.262;2023-04-09T03:37:13;16.90;;;11.95;;
25549;SDS011;13444;50.562;7.262;2023-04-09T03:39:38;15.95;;;12.23;;
25549;SDS011;13444;50.562;7.262;2023-04-09T03:42:04;15.98;;;12.38;;
25549;SDS011;13444;50.562;7.262;2023-04-09T03:44:30;17.92;;;13.02;;
25549;SDS011;13444;50.562;7.262;2023-04-09T03:46:55;16.35;;;11.48;;
25549;SDS011;13444;50.562;7.262;2023-04-09T03:49:21;17.27;;;11.77;;
25549;SDS011;13444;50.562;7.262;2023-04-09T03:51:46;16.27;;;10.90;;
25549;SDS011;13444;50.562;7.262;2023-04-09T03:54:12;17.85;;;13.85;;
25549;SDS011;13444;50.562;7.262;2023-04-09T03:56:37;21.23;;;15.25;;
25549;SDS011;13444;50.562;7.262;2023-04-09T03:59:03;20.23;;;14.80;;
25549;SDS011;13444;50.562;7.262;2023-04-09T04:01:29;18.88;;;14.13;;
25549;SDS011;13444;50.562;7.262;2023-04-09T04:03:54;17.35;;;13.48;;
25549;SDS011;13444;50.562;7.262;2023-04-09T04:06:20;19.60;;;13.38;;
25549;SDS011;13444;50.562;7.262;2023-04-09T04:08:45;19.65;;;12.75;;
25549;SDS011;13444;50.562;7.262;2023-04-09T04:11:11;15.63;;;11.63;;
25549;SDS011;13444;50.562;7.262;2023-04-09T04:13:37;15.15;;;11.52;;
25549;SDS011;13444;50.562;7.262;2023-04-09T04:16:05;16.23;;;12.73;;
25549;SDS011;13444;50.562;7.262;2023-04-09T04:18:33;16.58;;;12.10;;
25549;SDS011;13444;50.562;7.262;2023-04-09T04:20:58;15.40;;;10.35;;
25549;SDS011;13444;50.562;7.262;2023-04-09T04:23:24;16.92;;;10.40;;
25549;SDS011;13444;50.562;7.262;2023-04-09T04:25:50;21.40;;;11.55;;
25549;SDS011;13444;50.562;7.262;2023-04-09T04:28:17;17.67;;;11.50;;
25549;SDS011;13444;50.562;7.262;2023-04-09T04:30:42;13.55;;;9.77;;
25549;SDS011;13444;50.562;7.262;2023-04-09T04:33:08;15.02;;;9.82;;
25549;SDS011;13444;50.562;7.262;2023-04-09T04:35:34;13.90;;;9.10;;
25549;SDS011;13444;50.562;7.262;2023-04-09T04:37:59;13.30;;;9.25;;
25549;SDS011;13444;50.562;7.262;2023-04-09T04:40:25;13.60;;;8.95;;
25549;SDS011;13444;50.562;7.262;2023-04-09T04:42:51;14.73;;;8.63;;
25549;SDS011;13444;50.562;7.262;2023-04-09T04:45:16;12.83;;;8.67;;
25549;SDS011;13444;50.562;7.262;2023-04-09T04:47:42;11.55;;;8.40;;
25549;SDS011;13444;50.562;7.262;2023-04-09T04:50:07;10.82;;;8.05;;
25549;SDS011;13444;50.562;7.262;2023-04-09T04:52:33;14.57;;;8.73;;
25549;SDS011;13444;50.562;7.262;2023-04-09T04:55:00;13.10;;;7.93;;
25549;SDS011;13444;50.562;7.262;2023-04-09T04:57:25;11.23;;;7.72;;
25549;SDS011;13444;50.562;7.262;2023-04-09T04:59:50;10.38;;;7.30;;
25549;SDS011;13444;50.562;7.262;2023-04-09T05:02:16;11.15;;;8.15;;
25549;SDS011;13444;50.562;7.262;2023-04-09T05:04:42;12.07;;;8.10;;
25549;SDS011;13444;50.562;7.262;2023-04-09T05:07:07;12.32;;;8.18;;
25549;SDS011;13444;50.562;7.262;2023-04-09T05:09:32;11.30;;;8.25;;
25549;SDS011;13444;50.562;7.262;2023-04-09T05:11:58;11.77;;;7.43;;
25549;SDS011;13444;50.562;7.262;2023-04-09T05:14:24;10.95;;;7.13;;
25549;SDS011;13444;50.562;7.262;2023-04-09T05:16:49;9.88;;;7.30;;
25549;SDS011;13444;50.562;7.262;2023-04-09T05:19:16;10.43;;;7.37;;
25549;SDS011;13444;50.562;7.262;2023-04-09T05:21:41;11.98;;;7.80;;
25549;SDS011;13444;50.562;7.262;2023-04-09T05:24:07;13.10;;;7.97;;
25549;SDS011;13444;50.562;7.262;2023-04-09T05:26:32;10.05;;;7.65;;
25549;SDS011;13444;50.562;7.262;2023-04-09T05:28:58;9.50;;;7.00;;
25549;SDS011;13444;50.562;7.262;2023-04-09T05:31:23;9.17;;;7.00;;
25549;SDS011;13444;50.562;7.262;2023-04-09T05:33:49;8.95;;;6.85;;
25549;SDS011;13444;50.562;7.262;2023-04-09T05:36:15;9.63;;;7.10;;
25549;SDS011;13444;50.562;7.262;2023-04-09T05:38:42;8.15;;;6.50;;
25549;SDS011;13444;50.562;7.262;2023-04-09T05:41:08;10.50;;;7.47;;
25549;SDS011;13444;50.562;7.262;2023-04-09T05:43:34;8.45;;;6.80;;
25549;SDS011;13444;50.562;7.262;2023-04-09T05:45:59;9.88;;;6.85;;
25549;SDS011;13444;50.562;7.262;2023-04-09T05:48:25;8.43;;;6.47;;
25549;SDS011;13444;50.562;7.262;2023-04-09T05:50:50;7.75;;;6.15;;
25549;SDS011;13444;50.562;7.262;2023-04-09T05:53:17;8.40;;;6.47;;
25549;SDS011;13444;50.562;7.262;2023-04-09T05:55:43;9.57;;;6.82;;
25549;SDS011;13444;50.562;7.262;2023-04-09T05:58:10;7.75;;;6.30;;
25549;SDS011;13444;50.562;7.262;2023-04-09T06:00:36;9.73;;;6.65;;
25549;SDS011;13444;50.562;7.262;2023-04-09T06:03:01;8.50;;;6.68;;
25549;SDS011;13444;50.562;7.262;2023-04-09T06:05:27;9.23;;;7.20;;
25549;SDS011;13444;50.562;7.262;2023-04-09T06:07:52;8.85;;;7.45;;
25549;SDS011;13444;50.562;7.262;2023-04-09T06:10:18;11.73;;;7.47;;
25549;SDS011;13444;50.562;7.262;2023-04-09T06:12:43;11.30;;;8.90;;
25549;SDS011;13444;50.562;7.262;2023-04-09T06:15:09;12.93;;;9.57;;
25549;SDS011;13444;50.562;7.262;2023-04-09T06:17:35;13.25;;;8.60;;
25549;SDS011;13444;50.562;7.262;2023-04-09T06:20:00;10.93;;;7.63;;
25549;SDS011;13444;50.562;7.262;2023-04-09T06:22:26;10.00;;;7.22;;
25549;SDS011;13444;50.562;7.262;2023-04-09T06:24:51;11.48;;;7.47;;
25549;SDS011;13444;50.562;7.262;2023-04-09T06:27:17;11.38;;;8.02;;
25549;SDS011;13444;50.562;7.262;2023-04-09T06:29:43;13.95;;;8.07;;
25549;SDS011;13444;50.562;7.262;2023-04-09T06:32:08;11.65;;;7.65;;
25549;SDS011;13444;50.562;7.262;2023-04-09T06:34:34;11.05;;;8.48;;
25549;SDS011;13444;50.562;7.262;2023-04-09T06:36:59;12.50;;;7.45;;
25549;SDS011;13444;50.562;7.262;2023-04-09T06:39:25;10.82;;;7.50;;
25549;SDS011;13444;50.562;7.262;2023-04-09T06:41:51;11.40;;;7.32;;
25549;SDS011;13444;50.562;7.262;2023-04-09T06:44:17;10.05;;;7.80;;
25549;SDS011;13444;50.562;7.262;2023-04-09T06:46:43;9.73;;;7.32;;
25549;SDS011;13444;50.562;7.262;2023-04-09T06:49:09;10.15;;;7.63;;
25549;SDS011;13444;50.562;7.262;2023-04-09T06:51:35;14.20;;;7.55;;
25549;SDS011;13444;50.562;7.262;2023-04-09T06:54:00;12.50;;;7.82;;
25549;SDS011;13444;50.562;7.262;2023-04-09T06:56:26;12.30;;;7.68;;
25549;SDS011;13444;50.562;7.262;2023-04-09T06:58:51;10.73;;;7.32;;
25549;SDS011;13444;50.562;7.262;2023-04-09T07:01:17;12.65;;;7.72;;
25549;SDS011;13444;50.562;7.262;2023-04-09T07:03:42;10.15;;;6.90;;
25549;SDS011;13444;50.562;7.262;2023-04-09T07:06:08;9.60;;;7.38;;
25549;SDS011;13444;50.562;7.262;2023-04-09T07:08:33;10.80;;;7.28;;
25549;SDS011;13444;50.562;7.262;2023-04-09T07:10:59;8.88;;;6.90;;
25549;SDS011;13444;50.562;7.262;2023-04-09T07:13:24;13.77;;;7.32;;
25549;SDS011;13444;50.562;7.262;2023-04-09T07:15:50;13.48;;;7.32;;
25549;SDS011;13444;50.562;7.262;2023-04-09T07:18:15;10.38;;;7.82;;
25549;SDS011;13444;50.562;7.262;2023-04-09T07:20:41;10.77;;;7.07;;
25549;SDS011;13444;50.562;7.262;2023-04-09T07:23:06;9.05;;;6.80;;
25549;SDS011;13444;50.562;7.262;2023-04-09T07:25:32;13.82;;;8.43;;
25549;SDS011;13444;50.562;7.262;2023-04-09T07:27:57;11.25;;;7.82;;
25549;SDS011;13444;50.562;7.262;2023-04-09T07:30:23;10.68;;;7.57;;
25549;SDS011;13444;50.562;7.262;2023-04-09T07:32:49;10.30;;;7.93;;
25549;SDS011;13444;50.562;7.262;2023-04-09T07:35:15;11.23;;;7.68;;
25549;SDS011;13444;50.562;7.262;2023-04-09T07:37:42;10.48;;;7.30;;
25549;SDS011;13444;50.562;7.262;2023-04-09T07:40:08;9.73;;;7.10;;
25549;SDS011;13444;50.562;7.262;2023-04-09T07:42:35;10.38;;;7.32;;
25549;SDS011;13444;50.562;7.262;2023-04-09T07:45:02;10.75;;;7.30;;
25549;SDS011;13444;50.562;7.262;2023-04-09T07:47:27;12.00;;;8.45;;
25549;SDS011;13444;50.562;7.262;2023-04-09T07:49:53;12.18;;;8.57;;
25549;SDS011;13444;50.562;7.262;2023-04-09T07:52:19;11.75;;;8.60;;
25549;SDS011;13444;50.562;7.262;2023-04-09T07:54:44;13.48;;;8.98;;
25549;SDS011;13444;50.562;7.262;2023-04-09T07:57:10;12.30;;;9.43;;
25549;SDS011;13444;50.562;7.262;2023-04-09T07:59:35;12.82;;;9.13;;
25549;SDS011;13444;50.562;7.262;2023-04-09T08:02:01;13.90;;;9.45;;
25549;SDS011;13444;50.562;7.262;2023-04-09T08:04:27;13.57;;;9.48;;
25549;SDS011;13444;50.562;7.262;2023-04-09T08:06:52;11.50;;;9.15;;
25549;SDS011;13444;50.562;7.262;2023-04-09T08:09:19;12.98;;;9.05;;
25549;SDS011;13444;50.562;7.262;2023-04-09T08:11:45;12.70;;;9.65;;
25549;SDS011;13444;50.562;7.262;2023-04-09T08:14:12;11.73;;;9.27;;
25549;SDS011;13444;50.562;7.262;2023-04-09T08:16:42;13.20;;;9.55;;
25549;SDS011;13444;50.562;7.262;2023-04-09T08:19:09;12.35;;;9.57;;
25549;SDS011;13444;50.562;7.262;2023-04-09T08:21:38;13.05;;;9.60;;
25549;SDS011;13444;50.562;7.262;2023-04-09T08:24:08;13.98;;;10.05;;
25549;SDS011;13444;50.562;7.262;2023-04-09T08:26:36;13.55;;;10.18;;
25549;SDS011;13444;50.562;7.262;2023-04-09T08:29:01;13.52;;;9.48;;
25549;SDS011;13444;50.562;7.262;2023-04-09T08:31:27;14.27;;;9.63;;
25549;SDS011;13444;50.562;7.262;2023-04-09T08:33:52;13.40;;;10.07;;
25549;SDS011;13444;50.562;7.262;2023-04-09T08:36:18;14.38;;;10.13;;
25549;SDS011;13444;50.562;7.262;2023-04-09T08:38:44;13.65;;;10.15;;
25549;SDS011;13444;50.562;7.262;2023-04-09T08:41:18;13.80;;;9.63;;
25549;SDS011;13444;50.562;7.262;2023-04-09T08:43:47;13.38;;;9.88;;
25549;SDS011;13444;50.562;7.262;2023-04-09T08:46:14;14.88;;;10.35;;
25549;SDS011;13444;50.562;7.262;2023-04-09T08:48:43;14.05;;;9.95;;
25549;SDS011;13444;50.562;7.262;2023-04-09T08:51:12;13.90;;;10.18;;
25549;SDS011;13444;50.562;7.262;2023-04-09T08:53:41;15.63;;;10.48;;
25549;SDS011;13444;50.562;7.262;2023-04-09T08:56:12;15.35;;;10.73;;
25549;SDS011;13444;50.562;7.262;2023-04-09T08:58:40;15.75;;;10.07;;
25549;SDS011;13444;50.562;7.262;2023-04-09T09:01:19;15.32;;;10.73;;
25549;SDS011;13444;50.562;7.262;2023-04-09T09:06:20;14.07;;;10.68;;
25549;SDS011;13444;50.562;7.262;2023-04-09T09:09:06;13.57;;;10.52;;
25549;SDS011;13444;50.562;7.262;2023-04-09T09:11:43;13.02;;;10.35;;
25549;SDS011;13444;50.562;7.262;2023-04-09T09:14:10;12.85;;;9.95;;
25549;SDS011;13444;50.562;7.262;2023-04-09T09:16:41;14.80;;;11.15;;
25549;SDS011;13444;50.562;7.262;2023-04-09T09:19:09;12.45;;;9.90;;
25549;SDS011;13444;50.562;7.262;2023-04-09T09:22:02;14.68;;;10.55;;
25549;SDS011;13444;50.562;7.262;2023-04-09T09:24:29;14.77;;;11.38;;
25549;SDS011;13444;50.562;7.262;2023-04-09T09:26:56;14.13;;;10.70;;
25549;SDS011;13444;50.562;7.262;2023-04-09T09:29:22;12.73;;;9.77;;
25549;SDS011;13444;50.562;7.262;2023-04-09T09:31:49;15.45;;;10.80;;
25549;SDS011;13444;50.562;7.262;2023-04-09T09:34:16;13.35;;;10.63;;
25549;SDS011;13444;50.562;7.262;2023-04-09T09:36:42;12.32;;;9.43;;
25549;SDS011;13444;50.562;7.262;2023-04-09T09:39:09;16.67;;;11.25;;
25549;SDS011;13444;50.562;7.262;2023-04-09T09:41:36;12.93;;;10.50;;
25549;SDS011;13444;50.562;7.262;2023-04-09T09:44:03;11.30;;;9.52;;
25549;SDS011;13444;50.562;7.262;2023-04-09T09:46:33;15.05;;;11.05;;
25549;SDS011;13444;50.562;7.262;2023-04-09T09:48:59;13.57;;;9.70;;
25549;SDS011;13444;50.562;7.262;2023-04-09T09:51:25;15.60;;;9.73;;
25549;SDS011;13444;50.562;7.262;2023-04-09T09:53:56;16.05;;;10.60;;
25549;SDS011;13444;50.562;7.262;2023-04-09T09:56:30;15.40;;;11.38;;
25549;SDS011;13444;50.562;7.262;2023-04-09T09:59:12;12.98;;;10.30;;
25549;SDS011;13444;50.562;7.262;2023-04-09T10:01:42;14.65;;;10.32;;
25549;SDS011;13444;50.562;7.262;2023-04-09T10:04:11;12.40;;;9.77;;
25549;SDS011;13444;50.562;7.262;2023-04-09T10:06:42;9.75;;;8.18;;
25549;SDS011;13444;50.562;7.262;2023-04-09T10:09:09;9.10;;;7.50;;
25549;SDS011;13444;50.562;7.262;2023-04-09T10:11:36;11.77;;;8.57;;
25549;SDS011;13444;50.562;7.262;2023-04-09T10:14:03;9.52;;;7.40;;
25549;SDS011;13444;50.562;7.262;2023-04-09T10:16:31;11.88;;;7.55;;
25549;SDS011;13444;50.562;7.262;2023-04-09T10:18:58;9.32;;;7.57;;
25549;SDS011;13444;50.562;7.262;2023-04-09T10:23:54;9.48;;;7.32;;
25549;SDS011;13444;50.562;7.262;2023-04-09T10:26:20;8.85;;;7.43;;
25549;SDS011;13444;50.562;7.262;2023-04-09T10:29:04;12.35;;;8.77;;
25549;SDS011;13444;50.562;7.262;2023-04-09T10:31:50;10.57;;;7.82;;
25549;SDS011;13444;50.562;7.262;2023-04-09T10:34:27;8.88;;;6.90;;
25549;SDS011;13444;50.562;7.262;2023-04-09T10:36:56;11.57;;;8.90;;
25549;SDS011;13444;50.562;7.262;2023-04-09T10:39:25;8.82;;;7.32;;
25549;SDS011;13444;50.562;7.262;2023-04-09T10:41:51;10.98;;;7.28;;
25549;SDS011;13444;50.562;7.262;2023-04-09T10:44:19;9.82;;;7.32;;
25549;SDS011;13444;50.562;7.262;2023-04-09T10:46:49;9.43;;;7.20;;
25549;SDS011;13444;50.562;7.262;2023-04-09T10:49:23;8.23;;;6.85;;
25549;SDS011;13444;50.562;7.262;2023-04-09T10:59:36;8.95;;;7.28;;
25549;SDS011;13444;50.562;7.262;2023-04-09T11:02:53;9.60;;;6.85;;
25549;SDS011;13444;50.562;7.262;2023-04-09T11:07:28;8.27;;;7.18;;
25549;SDS011;13444;50.562;7.262;2023-04-09T11:09:56;9.15;;;7.32;;
25549;SDS011;13444;50.562;7.262;2023-04-09T11:12:22;7.88;;;6.47;;
25549;SDS011;13444;50.562;7.262;2023-04-09T11:14:47;9.52;;;7.38;;
25549;SDS011;13444;50.562;7.262;2023-04-09T11:17:13;8.82;;;6.85;;
25549;SDS011;13444;50.562;7.262;2023-04-09T11:19:39;8.75;;;7.07;;
25549;SDS011;13444;50.562;7.262;2023-04-09T11:22:04;8.80;;;7.22;;
25549;SDS011;13444;50.562;7.262;2023-04-09T11:24:39;8.10;;;6.88;;
25549;SDS011;13444;50.562;7.262;2023-04-09T11:27:09;7.80;;;6.28;;
25549;SDS011;13444;50.562;7.262;2023-04-09T11:29:35;7.90;;;6.20;;
25549;SDS011;13444;50.562;7.262;2023-04-09T11:32:01;7.93;;;6.30;;
25549;SDS011;13444;50.562;7.262;2023-04-09T11:34:27;7.93;;;6.10;;
25549;SDS011;13444;50.562;7.262;2023-04-09T11:36:52;7.05;;;5.63;;
25549;SDS011;13444;50.562;7.262;2023-04-09T11:39:18;7.20;;;6.20;;
25549;SDS011;13444;50.562;7.262;2023-04-09T11:41:44;7.40;;;6.00;;
25549;SDS011;13444;50.562;7.262;2023-04-09T11:44:10;6.80;;;5.80;;
25549;SDS011;13444;50.562;7.262;2023-04-09T11:46:36;7.25;;;5.22;;
25549;SDS011;13444;50.562;7.262;2023-04-09T11:49:02;7.47;;;6.00;;
25549;SDS011;13444;50.562;7.262;2023-04-09T11:51:28;7.28;;;5.90;;
25549;SDS011;13444;50.562;7.262;2023-04-09T11:53:56;10.88;;;5.82;;
25549;SDS011;13444;50.562;7.262;2023-04-09T11:56:27;6.78;;;5.28;;
25549;SDS011;13444;50.562;7.262;2023-04-09T11:58:55;6.38;;;4.97;;
25549;SDS011;13444;50.562;7.262;2023-04-09T12:01:20;7.95;;;5.43;;
25549;SDS011;13444;50.562;7.262;2023-04-09T12:03:53;7.07;;;5.60;;
25549;SDS011;13444;50.562;7.262;2023-04-09T12:06:19;6.40;;;5.13;;
25549;SDS011;13444;50.562;7.262;2023-04-09T12:08:46;6.70;;;5.15;;
25549;SDS011;13444;50.562;7.262;2023-04-09T12:11:16;6.40;;;4.75;;
25549;SDS011;13444;50.562;7.262;2023-04-09T12:13:42;6.22;;;5.07;;
25549;SDS011;13444;50.562;7.262;2023-04-09T12:16:10;5.82;;;4.90;;
25549;SDS011;13444;50.562;7.262;2023-04-09T12:18:36;6.68;;;5.30;;
25549;SDS011;13444;50.562;7.262;2023-04-09T12:21:02;4.95;;;4.10;;
25549;SDS011;13444;50.562;7.262;2023-04-09T12:23:28;5.82;;;4.82;;
25549;SDS011;13444;50.562;7.262;2023-04-09T12:25:55;5.13;;;4.57;;
25549;SDS011;13444;50.562;7.262;2023-04-09T12:28:23;6.47;;;4.90;;
25549;SDS011;13444;50.562;7.262;2023-04-09T12:30:49;5.88;;;4.78;;
25549;SDS011;13444;50.562;7.262;2023-04-09T12:33:15;5.95;;;4.40;;
25549;SDS011;13444;50.562;7.262;2023-04-09T12:35:41;6.60;;;5.22;;
25549;SDS011;13444;50.562;7.262;2023-04-09T12:38:06;5.68;;;4.80;;
25549;SDS011;13444;50.562;7.262;2023-04-09T12:40:32;6.13;;;5.38;;
25549;SDS011;13444;50.562;7.262;2023-04-09T12:42:59;6.18;;;4.13;;
25549;SDS011;13444;50.562;7.262;2023-04-09T12:45:25;5.85;;;4.80;;
25549;SDS011;13444;50.562;7.262;2023-04-09T12:47:51;9.23;;;5.20;;
25549;SDS011;13444;50.562;7.262;2023-04-09T12:50:17;6.30;;;5.13;;
25549;SDS011;13444;50.562;7.262;2023-04-09T12:52:43;6.43;;;4.70;;
25549;SDS011;13444;50.562;7.262;2023-04-09T12:55:09;6.28;;;4.95;;
25549;SDS011;13444;50.562;7.262;2023-04-09T12:57:35;6.13;;;4.72;;
25549;SDS011;13444;50.562;7.262;2023-04-09T13:00:02;5.95;;;4.93;;
25549;SDS011;13444;50.562;7.262;2023-04-09T13:02:29;6.57;;;5.15;;
25549;SDS011;13444;50.562;7.262;2023-04-09T13:04:55;7.28;;;4.40;;
25549;SDS011;13444;50.562;7.262;2023-04-09T13:07:21;4.85;;;4.35;;
25549;SDS011;13444;50.562;7.262;2023-04-09T13:09:47;5.53;;;4.45;;
25549;SDS011;13444;50.562;7.262;2023-04-09T13:12:16;5.93;;;4.00;;
25549;SDS011;13444;50.562;7.262;2023-04-09T13:14:42;5.05;;;3.78;;
25549;SDS011;13444;50.562;7.262;2023-04-09T13:17:10;5.25;;;4.45;;
25549;SDS011;13444;50.562;7.262;2023-04-09T13:19:36;4.60;;;3.95;;
25549;SDS011;13444;50.562;7.262;2023-04-09T13:22:01;4.72;;;3.90;;
25549;SDS011;13444;50.562;7.262;2023-04-09T13:24:27;5.93;;;4.32;;
25549;SDS011;13444;50.562;7.262;2023-04-09T13:26:52;4.95;;;4.20;;
25549;SDS011;13444;50.562;7.262;2023-04-09T13:29:18;3.80;;;3.40;;
25549;SDS011;13444;50.562;7.262;2023-04-09T13:31:43;4.88;;;3.92;;
25549;SDS011;13444;50.562;7.262;2023-04-09T13:34:09;4.28;;;3.85;;
25549;SDS011;13444;50.562;7.262;2023-04-09T13:36:35;5.63;;;4.63;;
25549;SDS011;13444;50.562;7.262;2023-04-09T13:39:01;4.68;;;4.13;;
25549;SDS011;13444;50.562;7.262;2023-04-09T13:41:31;4.68;;;3.80;;
25549;SDS011;13444;50.562;7.262;2023-04-09T13:43:57;4.25;;;3.38;;
25549;SDS011;13444;50.562;7.262;2023-04-09T13:46:23;4.43;;;3.67;;
25549;SDS011;13444;50.562;7.262;2023-04-09T13:48:48;5.00;;;4.05;;
25549;SDS011;13444;50.562;7.262;2023-04-09T13:51:14;8.68;;;4.00;;
25549;SDS011;13444;50.562;7.262;2023-04-09T13:53:40;5.57;;;4.35;;
25549;SDS011;13444;50.562;7.262;2023-04-09T13:56:05;6.40;;;4.43;;
25549;SDS011;13444;50.562;7.262;2023-04-09T13:58:31;5.43;;;3.90;;
25549;SDS011;13444;50.562;7.262;2023-04-09T14:00:56;4.38;;;3.90;;
25549;SDS011;13444;50.562;7.262;2023-04-09T14:03:22;5.25;;;3.80;;
25549;SDS011;13444;50.562;7.262;2023-04-09T14:05:47;5.45;;;3.80;;
25549;SDS011;13444;50.562;7.262;2023-04-09T14:08:14;5.43;;;3.88;;
25549;SDS011;13444;50.562;7.262;2023-04-09T14:10:40;5.72;;;3.53;;
25549;SDS011;13444;50.562;7.262;2023-04-09T14:13:06;5.05;;;4.15;;
25549;SDS011;13444;50.562;7.262;2023-04-09T14:15:34;5.43;;;3.88;;
25549;SDS011;13444;50.562;7.262;2023-04-09T14:18:00;4.75;;;3.97;;
25549;SDS011;13444;50.562;7.262;2023-04-09T14:20:26;4.57;;;4.03;;
25549;SDS011;13444;50.562;7.262;2023-04-09T14:22:52;3.88;;;3.47;;
25549;SDS011;13444;50.562;7.262;2023-04-09T14:25:18;4.75;;;3.92;;
25549;SDS011;13444;50.562;7.262;2023-04-09T14:27:43;5.85;;;4.70;;
25549;SDS011;13444;50.562;7.262;2023-04-09T14:30:09;4.45;;;3.92;;
25549;SDS011;13444;50.562;7.262;2023-04-09T14:32:36;5.70;;;4.13;;
25549;SDS011;13444;50.562;7.262;2023-04-09T14:35:02;5.55;;;4.18;;
25549;SDS011;13444;50.562;7.262;2023-04-09T14:37:27;4.55;;;3.78;;
25549;SDS011;13444;50.562;7.262;2023-04-09T14:39:53;5.80;;;4.20;;
25549;SDS011;13444;50.562;7.262;2023-04-09T14:42:18;5.63;;;3.75;;
25549;SDS011;13444;50.562;7.262;2023-04-09T14:44:46;5.03;;;4.43;;
25549;SDS011;13444;50.562;7.262;2023-04-09T14:47:12;5.18;;;4.57;;
25549;SDS011;13444;50.562;7.262;2023-04-09T14:49:37;5.72;;;4.38;;
25549;SDS011;13444;50.562;7.262;2023-04-09T14:52:03;6.18;;;4.47;;